createdAt,value
2023-03-19T00:00:56.530Z,101953.59
2023-03-19T00:03:24.156Z,101953.91
2023-03-19T00:05:53.433Z,101958.22
2023-03-19T00:08:21.615Z,101953.63
2023-03-19T00:10:51.156Z,101947.06
2023-03-19T00:13:19.355Z,101945.94
2023-03-19T00:15:52.255Z,101944.25
2023-03-19T00:18:20.470Z,101948.09
2023-03-19T00:20:48.045Z,101940.13
2023-03-19T00:23:15.391Z,101941.81
2023-03-19T00:25:43.203Z,101937.25
2023-03-19T00:28:10.808Z,101941.09
2023-03-19T00:30:38.965Z,101931.56
2023-03-19T00:33:06.768Z,101932.41
2023-03-19T00:35:34.460Z,101933.25
2023-03-19T00:38:03.620Z,101936.03
2023-03-19T00:40:31.196Z,101929.97
2023-03-19T00:42:58.612Z,101930.47
2023-03-19T00:45:31.086Z,101928.25
2023-03-19T00:47:58.997Z,101934.34
2023-03-19T00:50:26.504Z,101935.34
2023-03-19T00:52:57.471Z,101941.72
2023-03-19T00:55:25.942Z,101937.53
2023-03-19T00:57:56.154Z,101936.66
2023-03-19T01:00:23.732Z,101939.59
2023-03-19T01:02:52.789Z,101935.53
2023-03-19T01:05:20.982Z,101940.22
2023-03-19T01:07:48.366Z,101940.88
2023-03-19T01:10:18.684Z,101941.38
2023-03-19T01:12:46.177Z,101937.53
2023-03-19T01:15:13.574Z,101939.22
2023-03-19T01:17:42.483Z,101936.53
2023-03-19T01:20:13.368Z,101933.69
2023-03-19T01:22:43.727Z,101931.16
2023-03-19T01:25:13.469Z,101933.53
2023-03-19T01:27:41.116Z,101934.50
2023-03-19T01:30:09.431Z,101933.34
2023-03-19T01:32:46.287Z,101932.31
2023-03-19T01:35:13.922Z,101939.47
2023-03-19T01:37:42.242Z,101943.59
2023-03-19T01:40:14.036Z,101936.22
2023-03-19T01:42:53.678Z,101937.19
2023-03-19T01:45:32.361Z,101929.72
2023-03-19T01:48:01.013Z,101944.13
2023-03-19T01:50:42.133Z,101941.34
2023-03-19T01:53:13.445Z,101941.75
2023-03-19T01:55:48.354Z,101950.47
2023-03-19T01:58:16.102Z,101941.34
2023-03-19T02:00:43.583Z,101947.78
2023-03-19T02:03:11.819Z,101953.38
2023-03-19T02:05:41.701Z,101948.53
2023-03-19T02:08:17.094Z,101952.41
2023-03-19T02:10:47.694Z,101960.84
2023-03-19T02:13:15.807Z,101954.97
2023-03-19T02:15:43.374Z,101962.53
2023-03-19T02:18:11.568Z,101956.47
2023-03-19T02:21:15.014Z,101954.00
2023-03-19T02:24:03.401Z,101958.19
2023-03-19T02:26:31.859Z,101954.03
2023-03-19T02:28:59.759Z,101955.44
2023-03-19T02:31:28.189Z,101956.16
2023-03-19T02:33:59.824Z,101967.06
2023-03-19T02:36:42.640Z,101957.25
2023-03-19T02:39:26.393Z,101961.59
2023-03-19T02:41:57.269Z,101958.91
2023-03-19T02:44:26.515Z,101952.19
2023-03-19T02:46:53.948Z,101962.84
2023-03-19T02:49:21.352Z,101963.06
2023-03-19T02:51:48.703Z,101957.16
2023-03-19T02:54:16.143Z,101955.72
2023-03-19T02:56:44.131Z,101959.09
2023-03-19T02:59:15.158Z,101956.25
2023-03-19T03:01:43.362Z,101950.97
2023-03-19T03:04:11.050Z,101944.44
2023-03-19T03:06:46.445Z,101945.94
2023-03-19T03:09:14.973Z,101948.25
2023-03-19T03:11:42.391Z,101955.00
2023-03-19T03:14:12.716Z,101955.41
2023-03-19T03:16:40.354Z,101962.50
2023-03-19T03:19:08.069Z,101956.38
2023-03-19T03:21:36.604Z,101963.97
2023-03-19T03:24:04.487Z,101962.28
2023-03-19T03:26:32.021Z,101964.41
2023-03-19T03:28:59.598Z,101960.31
2023-03-19T03:31:27.271Z,101962.72
2023-03-19T03:34:02.076Z,101954.25
2023-03-19T03:36:29.656Z,101957.09
2023-03-19T03:38:57.406Z,101952.16
2023-03-19T03:41:24.837Z,101949.66
2023-03-19T03:43:52.871Z,101956.38
2023-03-19T03:46:25.681Z,101958.13
2023-03-19T03:48:53.530Z,101947.56
2023-03-19T03:51:22.282Z,101947.16
2023-03-19T03:53:49.744Z,101944.16
2023-03-19T03:56:17.800Z,101942.47
2023-03-19T03:58:45.207Z,101944.16
2023-03-19T04:01:16.421Z,101944.06
2023-03-19T04:03:44.626Z,101937.66
2023-03-19T04:06:17.814Z,101940.66
2023-03-19T04:08:45.449Z,101944.00
2023-03-19T04:11:13.194Z,101948.88
2023-03-19T04:13:43.375Z,101947.84
2023-03-19T04:16:11.506Z,101951.03
2023-03-19T04:18:39.109Z,101947.78
2023-03-19T04:21:09.115Z,101953.19
2023-03-19T04:23:37.738Z,101955.59
2023-03-19T04:26:07.632Z,101947.94
2023-03-19T04:28:36.456Z,101954.50
2023-03-19T04:31:08.327Z,101947.25
2023-03-19T04:33:37.300Z,101943.66
2023-03-19T04:36:05.233Z,101951.69
2023-03-19T04:38:32.966Z,101952.50
2023-03-19T04:41:05.488Z,101949.97
2023-03-19T04:43:33.016Z,101947.56
2023-03-19T04:46:01.024Z,101959.31
2023-03-19T04:48:29.619Z,101951.63
2023-03-19T04:50:57.438Z,101953.13
2023-03-19T04:53:25.705Z,101961.81
2023-03-19T04:55:53.308Z,101954.72
2023-03-19T04:58:20.859Z,101955.00
2023-03-19T05:00:48.862Z,101951.38
2023-03-19T05:03:16.621Z,101944.91
2023-03-19T05:05:44.085Z,101944.13
2023-03-19T05:08:12.007Z,101947.56
2023-03-19T05:10:40.081Z,101949.44
2023-03-19T05:13:08.000Z,101943.34
2023-03-19T05:15:36.297Z,101950.75
2023-03-19T05:18:03.899Z,101951.78
2023-03-19T05:20:33.699Z,101944.34
2023-03-19T05:23:01.591Z,101947.44
2023-03-19T05:25:30.283Z,101946.16
2023-03-19T05:27:57.704Z,101950.19
2023-03-19T05:30:25.374Z,101947.69
2023-03-19T05:32:59.712Z,101945.53
2023-03-19T05:35:29.631Z,101946.38
2023-03-19T05:37:57.210Z,101953.06
2023-03-19T05:40:24.988Z,101948.72
2023-03-19T05:42:52.469Z,101960.78
2023-03-19T05:45:22.661Z,101947.69
2023-03-19T05:47:51.474Z,101947.75
2023-03-19T05:50:19.119Z,101949.81
2023-03-19T05:52:46.452Z,101948.41
2023-03-19T05:55:14.027Z,101946.72
2023-03-19T05:57:41.350Z,101949.41
2023-03-19T06:00:09.595Z,101953.16
2023-03-19T06:02:37.735Z,101950.19
2023-03-19T06:05:11.043Z,101955.59
2023-03-19T06:07:39.813Z,101957.50
2023-03-19T06:10:07.867Z,101953.66
2023-03-19T06:12:36.995Z,101952.66
2023-03-19T06:15:05.629Z,101957.31
2023-03-19T06:17:36.164Z,101958.25
2023-03-19T06:20:04.465Z,101949.69
2023-03-19T06:22:32.396Z,101952.94
2023-03-19T06:24:59.825Z,101948.84
2023-03-19T06:27:27.238Z,101946.41
2023-03-19T06:29:54.780Z,101949.56
2023-03-19T06:32:26.481Z,101944.13
2023-03-19T06:34:56.366Z,101943.75
2023-03-19T06:37:23.986Z,101945.31
2023-03-19T06:39:51.383Z,101951.50
2023-03-19T06:42:18.863Z,101946.16
2023-03-19T06:44:46.576Z,101941.31
2023-03-19T06:47:15.651Z,101947.53
2023-03-19T06:49:43.206Z,101952.59
2023-03-19T06:52:10.818Z,101946.16
2023-03-19T06:54:39.280Z,101964.38
2023-03-19T06:57:06.897Z,101964.00
2023-03-19T06:59:36.955Z,101960.50
2023-03-19T07:02:05.666Z,101968.75
2023-03-19T07:04:33.094Z,101976.38
2023-03-19T07:07:02.619Z,101983.44
2023-03-19T07:09:30.709Z,101978.09
2023-03-19T07:11:58.099Z,101975.53
2023-03-19T07:14:30.080Z,101965.31
2023-03-19T07:16:58.127Z,101967.59
2023-03-19T07:19:25.814Z,101963.09
2023-03-19T07:21:53.316Z,101953.69
2023-03-19T07:24:20.851Z,101957.34
2023-03-19T07:26:48.288Z,101956.09
2023-03-19T07:29:17.811Z,101956.34
2023-03-19T07:31:45.348Z,101962.44
2023-03-19T07:34:14.972Z,101954.91
2023-03-19T07:36:42.290Z,101953.09
2023-03-19T07:39:10.147Z,101945.19
2023-03-19T07:41:38.301Z,101954.59
2023-03-19T07:44:06.443Z,101948.06
2023-03-19T07:46:34.317Z,101955.41
2023-03-19T07:49:01.679Z,101954.31
2023-03-19T07:51:29.205Z,101958.19
2023-03-19T07:53:58.079Z,101949.16
2023-03-19T07:56:26.329Z,101950.91
2023-03-19T07:58:53.761Z,101945.31
2023-03-19T08:01:21.614Z,101938.09
2023-03-19T08:03:49.147Z,101931.88
2023-03-19T08:06:16.881Z,101933.16
2023-03-19T08:08:46.434Z,101931.41
2023-03-19T08:11:13.851Z,101949.44
2023-03-19T08:13:42.697Z,101950.63
2023-03-19T08:16:14.014Z,101939.16
2023-03-19T08:18:42.491Z,101938.94
2023-03-19T08:21:09.917Z,101937.97
2023-03-19T08:23:40.811Z,101943.00
2023-03-19T08:26:08.400Z,101946.28
2023-03-19T08:28:40.801Z,101949.69
2023-03-19T08:31:12.169Z,101948.13
2023-03-19T08:33:40.278Z,101935.75
2023-03-19T08:36:11.796Z,101938.59
2023-03-19T08:38:40.305Z,101938.94
2023-03-19T08:41:12.891Z,101943.31
2023-03-19T08:43:41.053Z,101946.38
2023-03-19T08:46:08.461Z,101940.75
2023-03-19T08:48:39.712Z,101941.91
2023-03-19T08:51:09.990Z,101941.13
2023-03-19T08:53:38.821Z,101948.16
2023-03-19T08:56:10.372Z,101943.25
2023-03-19T08:58:42.867Z,101930.25
2023-03-19T09:01:14.189Z,101938.81
2023-03-19T09:03:43.586Z,101933.00
2023-03-19T09:06:12.646Z,101934.88
2023-03-19T09:08:59.686Z,101945.31
2023-03-19T09:11:27.401Z,101943.84
2023-03-19T09:13:57.195Z,101933.66
2023-03-19T09:16:26.147Z,101928.13
2023-03-19T09:18:59.297Z,101924.75
2023-03-19T09:21:29.018Z,101937.09
2023-03-19T09:23:56.405Z,101925.25
2023-03-19T09:26:23.958Z,101922.09
2023-03-19T09:28:51.756Z,101920.66
2023-03-19T09:31:29.746Z,101920.44
2023-03-19T09:33:57.572Z,101919.91
2023-03-19T09:36:25.669Z,101909.69
2023-03-19T09:38:53.080Z,101915.03
2023-03-19T09:41:36.358Z,101919.22
2023-03-19T09:44:19.185Z,101902.47
2023-03-19T09:46:55.647Z,101911.53
2023-03-19T09:49:28.412Z,101904.78
2023-03-19T09:52:31.798Z,101910.13
2023-03-19T09:55:19.395Z,101905.34
2023-03-19T09:57:48.751Z,101910.31
2023-03-19T10:00:26.008Z,101906.84
2023-03-19T10:03:14.529Z,101905.69
2023-03-19T10:06:06.207Z,101894.53
2023-03-19T10:09:06.682Z,101896.59
2023-03-19T10:12:06.612Z,101898.69
2023-03-19T10:15:07.287Z,101895.59
2023-03-19T10:18:01.807Z,101895.31
2023-03-19T10:21:00.055Z,101890.63
2023-03-19T10:23:47.104Z,101889.63
2023-03-19T10:26:18.231Z,101884.22
2023-03-19T10:28:58.091Z,101882.97
2023-03-19T10:31:27.694Z,101886.19
2023-03-19T10:33:58.068Z,101874.66
2023-03-19T10:36:35.335Z,101877.50
2023-03-19T10:39:07.012Z,101871.78
2023-03-19T10:42:00.495Z,101885.53
2023-03-19T10:44:31.146Z,101878.06
2023-03-19T10:47:00.440Z,101876.53
2023-03-19T10:49:28.050Z,101873.66
2023-03-19T10:51:58.409Z,101870.25
2023-03-19T10:54:27.879Z,101872.66
2023-03-19T10:56:59.854Z,101873.09
2023-03-19T10:59:30.559Z,101878.91
2023-03-19T11:02:01.641Z,101882.31
2023-03-19T11:04:32.436Z,101876.78
2023-03-19T11:07:12.186Z,101874.22
2023-03-19T11:09:50.376Z,101876.63
2023-03-19T11:12:34.085Z,101863.09
2023-03-19T11:15:07.546Z,101871.75
2023-03-19T11:17:45.557Z,101871.69
2023-03-19T11:20:42.742Z,101869.84
2023-03-19T11:23:16.724Z,101861.72
2023-03-19T11:25:55.411Z,101858.19
2023-03-19T11:28:26.721Z,101857.41
2023-03-19T11:31:19.833Z,101851.31
2023-03-19T11:34:02.252Z,101865.34
2023-03-19T11:37:05.138Z,101859.09
2023-03-19T11:39:36.589Z,101857.34
2023-03-19T11:42:20.093Z,101854.97
2023-03-19T11:45:09.805Z,101850.22
2023-03-19T11:48:00.723Z,101848.63
2023-03-19T11:50:38.872Z,101853.94
2023-03-19T11:53:21.534Z,101849.88
2023-03-19T11:56:19.787Z,101849.13
2023-03-19T11:59:12.846Z,101847.59
2023-03-19T12:02:09.499Z,101846.81
2023-03-19T12:04:59.073Z,101843.16
2023-03-19T12:07:38.371Z,101845.38
2023-03-19T12:10:37.091Z,101840.75
2023-03-19T12:13:57.205Z,101843.16
2023-03-19T12:16:55.987Z,101842.72
2023-03-19T12:19:38.755Z,101846.69
2023-03-19T12:22:15.247Z,101833.13
2023-03-19T12:24:53.073Z,101836.09
2023-03-19T12:27:30.488Z,101836.50
2023-03-19T12:30:12.587Z,101841.34
2023-03-19T12:32:50.970Z,101841.59
2023-03-19T12:35:34.416Z,101838.47
2023-03-19T12:38:02.725Z,101836.25
2023-03-19T12:40:43.785Z,101836.91
2023-03-19T12:43:37.599Z,101838.81
2023-03-19T12:46:11.902Z,101831.69
2023-03-19T12:48:46.981Z,101830.44
2023-03-19T12:51:20.763Z,101833.97
2023-03-19T12:54:14.567Z,101836.72
2023-03-19T12:57:10.544Z,101835.19
2023-03-19T13:00:01.491Z,101822.88
2023-03-19T13:02:41.457Z,101816.63
2023-03-19T13:05:31.764Z,101820.34
2023-03-19T13:08:06.159Z,101821.34
2023-03-19T13:10:36.271Z,101826.72
2023-03-19T13:13:25.032Z,101825.09
2023-03-19T13:16:00.419Z,101820.88
2023-03-19T13:18:50.465Z,101817.91
2023-03-19T13:21:30.314Z,101821.28
2023-03-19T13:24:30.428Z,101809.59
2023-03-19T13:27:01.354Z,101804.69
2023-03-19T13:29:34.925Z,101806.72
2023-03-19T13:32:24.624Z,101809.72
2023-03-19T13:35:13.455Z,101802.22
2023-03-19T13:37:43.694Z,101795.59
2023-03-19T13:40:57.040Z,101802.22
2023-03-19T13:43:30.697Z,101804.63
2023-03-19T13:46:09.808Z,101806.50
2023-03-19T13:48:51.793Z,101795.75
2023-03-19T13:51:21.890Z,101793.84
2023-03-19T13:54:12.858Z,101787.84
2023-03-19T13:57:17.079Z,101788.16
2023-03-19T13:59:49.992Z,101784.97
2023-03-19T14:02:21.296Z,101780.81
2023-03-19T14:05:02.371Z,101783.09
2023-03-19T14:07:41.907Z,101784.13
2023-03-19T14:10:27.989Z,101792.66
2023-03-19T14:13:06.338Z,101785.94
2023-03-19T14:15:39.119Z,101781.72
2023-03-19T14:18:16.627Z,101780.00
2023-03-19T14:20:57.105Z,101779.03
2023-03-19T14:23:39.421Z,101783.66
2023-03-19T14:26:26.134Z,101772.56
2023-03-19T14:29:06.119Z,101771.97
2023-03-19T14:31:36.501Z,101769.84
2023-03-19T14:34:19.373Z,101768.78
2023-03-19T14:37:08.467Z,101768.50
2023-03-19T14:39:42.567Z,101770.69
2023-03-19T14:42:32.563Z,101773.75
2023-03-19T14:45:26.359Z,101765.66
2023-03-19T14:48:20.541Z,101768.50
2023-03-19T14:51:22.960Z,101767.94
2023-03-19T14:53:55.971Z,101759.16
2023-03-19T14:56:23.485Z,101767.88
2023-03-19T14:58:55.450Z,101753.25
2023-03-19T15:01:27.460Z,101759.28
2023-03-19T15:04:03.151Z,101768.16
2023-03-19T15:06:39.968Z,101763.00
2023-03-19T15:09:26.810Z,101764.53
2023-03-19T15:12:00.596Z,101756.19
2023-03-19T15:14:37.144Z,101759.06
2023-03-19T15:17:16.240Z,101757.81
2023-03-19T15:19:43.910Z,101764.13
2023-03-19T15:22:19.753Z,101762.81
2023-03-19T15:24:48.362Z,101764.56
2023-03-19T15:27:23.868Z,101757.09
2023-03-19T15:29:53.937Z,101761.97
2023-03-19T15:33:09.119Z,101762.69
2023-03-19T15:35:36.818Z,101757.00
2023-03-19T15:38:12.225Z,101764.25
2023-03-19T15:40:42.618Z,101758.63
2023-03-19T15:43:13.248Z,101754.50
2023-03-19T15:45:45.478Z,101757.00
2023-03-19T15:48:24.792Z,101761.09
2023-03-19T15:50:59.824Z,101763.06
2023-03-19T15:53:31.917Z,101756.78
2023-03-19T15:56:02.474Z,101770.53
2023-03-19T15:58:40.154Z,101763.31
2023-03-19T16:01:12.353Z,101766.09
2023-03-19T16:03:44.421Z,101774.28
2023-03-19T16:06:22.062Z,101775.69
2023-03-19T16:08:55.545Z,101764.72
2023-03-19T16:11:28.857Z,101777.63
2023-03-19T16:14:02.152Z,101779.84
2023-03-19T16:16:34.790Z,101783.50
2023-03-19T16:19:02.943Z,101786.03
2023-03-19T16:21:41.412Z,101787.28
2023-03-19T16:24:08.770Z,101784.53
2023-03-19T16:26:38.172Z,101779.88
2023-03-19T16:29:25.392Z,101770.78
2023-03-19T16:31:59.019Z,101772.66
2023-03-19T16:34:32.210Z,101774.25
2023-03-19T16:37:01.241Z,101775.34
2023-03-19T16:39:37.188Z,101771.69
2023-03-19T16:42:13.313Z,101764.53
2023-03-19T16:44:43.913Z,101765.19
2023-03-19T16:47:13.136Z,101754.63
2023-03-19T16:49:40.672Z,101757.22
2023-03-19T16:52:17.724Z,101753.81
2023-03-19T16:54:49.398Z,101751.03
2023-03-19T16:57:17.722Z,101762.78
2023-03-19T16:59:46.716Z,101755.91
2023-03-19T17:02:17.344Z,101751.22
2023-03-19T17:04:46.194Z,101750.09
2023-03-19T17:07:13.792Z,101748.28
2023-03-19T17:09:43.321Z,101748.72
2023-03-19T17:12:16.395Z,101759.69
2023-03-19T17:14:52.528Z,101755.91
2023-03-19T17:17:22.016Z,101762.16
2023-03-19T17:19:49.541Z,101763.16
2023-03-19T17:22:17.627Z,101763.41
2023-03-19T17:24:45.561Z,101760.75
2023-03-19T17:27:13.027Z,101767.16
2023-03-19T17:29:41.167Z,101763.75
2023-03-19T17:32:18.017Z,101767.91
2023-03-19T17:34:45.574Z,101766.75
2023-03-19T17:37:17.307Z,101763.41
2023-03-19T17:39:45.926Z,101765.44
2023-03-19T17:42:24.726Z,101766.59
2023-03-19T17:44:52.272Z,101767.84
2023-03-19T17:47:19.881Z,101767.91
2023-03-19T17:49:47.698Z,101767.84
2023-03-19T17:52:17.354Z,101766.88
2023-03-19T17:54:46.940Z,101764.25
2023-03-19T17:57:15.530Z,101766.81
2023-03-19T17:59:43.169Z,101771.66
2023-03-19T18:02:25.276Z,101762.34
2023-03-19T18:04:53.100Z,101768.63
2023-03-19T18:07:20.751Z,101762.38
2023-03-19T18:09:48.152Z,101768.63
2023-03-19T18:12:16.026Z,101771.06
2023-03-19T18:14:43.440Z,101765.97
2023-03-19T18:17:17.146Z,101765.25
2023-03-19T18:19:47.730Z,101756.97
2023-03-19T18:22:17.388Z,101760.28
2023-03-19T18:24:46.945Z,101758.03
2023-03-19T18:27:14.771Z,101752.78
2023-03-19T18:29:42.524Z,101759.59
2023-03-19T18:32:20.684Z,101753.81
2023-03-19T18:34:48.174Z,101757.44
2023-03-19T18:37:18.243Z,101753.44
2023-03-19T18:39:46.084Z,101751.91
2023-03-19T18:42:16.824Z,101743.38
2023-03-19T18:44:46.137Z,101750.72
2023-03-19T18:47:15.708Z,101748.44
2023-03-19T18:49:48.521Z,101752.34
2023-03-19T18:52:19.232Z,101750.50
2023-03-19T18:54:47.599Z,101749.59
2023-03-19T18:57:16.137Z,101746.94
2023-03-19T18:59:43.914Z,101754.09
2023-03-19T19:02:21.828Z,101749.53
2023-03-19T19:04:49.685Z,101750.00
2023-03-19T19:07:17.507Z,101742.69
2023-03-19T19:09:46.313Z,101748.81
2023-03-19T19:12:18.317Z,101745.09
2023-03-19T19:14:46.510Z,101756.81
2023-03-19T19:17:24.149Z,101755.53
2023-03-19T19:19:54.507Z,101750.25
2023-03-19T19:22:21.886Z,101752.41
2023-03-19T19:24:49.372Z,101755.78
2023-03-19T19:27:20.758Z,101749.03
2023-03-19T19:29:51.485Z,101753.81
2023-03-19T19:32:25.126Z,101752.78
2023-03-19T19:34:53.583Z,101756.06
2023-03-19T19:37:23.619Z,101755.72
2023-03-19T19:39:51.772Z,101752.22
2023-03-19T19:42:22.797Z,101758.41
2023-03-19T19:44:54.060Z,101757.81
2023-03-19T19:47:21.866Z,101756.19
2023-03-19T19:49:50.426Z,101755.53
2023-03-19T19:52:19.587Z,101751.56
2023-03-19T19:54:47.413Z,101753.56
2023-03-19T19:57:18.905Z,101757.28
2023-03-19T19:59:46.481Z,101752.78
2023-03-19T20:02:28.930Z,101752.94
2023-03-19T20:04:59.009Z,101752.34
2023-03-19T20:07:27.234Z,101745.44
2023-03-19T20:09:55.188Z,101758.66
2023-03-19T20:12:33.156Z,101746.53
2023-03-19T20:15:01.059Z,101744.66
2023-03-19T20:17:29.550Z,101747.97
2023-03-19T20:19:57.188Z,101745.13
2023-03-19T20:22:24.576Z,101744.88
2023-03-19T20:24:52.241Z,101745.78
2023-03-19T20:27:28.148Z,101744.47
2023-03-19T20:29:56.155Z,101746.66
2023-03-19T20:32:39.263Z,101750.38
2023-03-19T20:35:21.033Z,101743.94
2023-03-19T20:37:48.528Z,101752.78
2023-03-19T20:40:16.584Z,101751.41
2023-03-19T20:42:49.415Z,101752.00
2023-03-19T20:45:22.976Z,101749.78
2023-03-19T20:47:54.518Z,101744.44
2023-03-19T20:50:30.533Z,101746.44
2023-03-19T20:53:03.675Z,101748.34
2023-03-19T20:55:34.394Z,101746.06
2023-03-19T20:58:10.332Z,101755.91
2023-03-19T21:00:38.180Z,101749.59
2023-03-19T21:03:06.114Z,101744.66
2023-03-19T21:05:37.714Z,101746.13
2023-03-19T21:08:14.978Z,101747.19
2023-03-19T21:10:44.058Z,101752.03
2023-03-19T21:13:17.712Z,101747.91
2023-03-19T21:15:47.114Z,101752.78
2023-03-19T21:18:15.089Z,101741.50
2023-03-19T21:20:45.469Z,101743.22
2023-03-19T21:23:32.002Z,101740.34
2023-03-19T21:26:19.909Z,101743.56
2023-03-19T21:28:50.820Z,101752.66
2023-03-19T21:31:20.754Z,101737.34
2023-03-19T21:33:50.666Z,101734.13
2023-03-19T21:36:18.681Z,101735.91
2023-03-19T21:38:46.696Z,101737.53
2023-03-19T21:41:30.435Z,101741.19
2023-03-19T21:44:01.629Z,101732.84
2023-03-19T21:46:32.396Z,101729.47
2023-03-19T21:48:59.969Z,101726.16
2023-03-19T21:51:28.764Z,101720.72
2023-03-19T21:53:56.769Z,101721.25
2023-03-19T21:56:34.150Z,101718.28
2023-03-19T21:59:06.763Z,101719.75
2023-03-19T22:01:34.334Z,101721.25
2023-03-19T22:04:02.543Z,101715.44
2023-03-19T22:06:30.186Z,101714.53
2023-03-19T22:08:57.712Z,101716.91
2023-03-19T22:11:28.522Z,101717.44
2023-03-19T22:14:06.440Z,101726.69
2023-03-19T22:16:34.842Z,101713.88
2023-03-19T22:19:03.234Z,101716.31
2023-03-19T22:21:31.473Z,101718.50
2023-03-19T22:24:00.661Z,101718.38
2023-03-19T22:26:37.308Z,101723.81
2023-03-19T22:29:18.763Z,101715.03
2023-03-19T22:31:52.246Z,101725.56
2023-03-19T22:34:22.271Z,101726.00
2023-03-19T22:36:50.566Z,101728.00
2023-03-19T22:39:18.100Z,101724.81
2023-03-19T22:41:48.997Z,101723.28
2023-03-19T22:44:31.320Z,101727.78
2023-03-19T22:47:01.927Z,101725.34
2023-03-19T22:49:30.079Z,101724.66
2023-03-19T22:51:58.432Z,101731.84
2023-03-19T22:54:26.240Z,101724.13
2023-03-19T22:56:53.821Z,101733.94
2023-03-19T22:59:23.061Z,101732.38
2023-03-19T23:01:50.580Z,101728.00
2023-03-19T23:04:23.020Z,101723.53
2023-03-19T23:06:53.488Z,101717.09
2023-03-19T23:09:38.899Z,101725.09
2023-03-19T23:14:36.957Z,101724.91
2023-03-19T23:17:19.723Z,101718.47
2023-03-19T23:19:48.893Z,101732.94
2023-03-19T23:22:17.248Z,101729.13
2023-03-19T23:24:45.002Z,101727.81
2023-03-19T23:27:23.588Z,101728.50
2023-03-19T23:29:51.233Z,101727.03
2023-03-19T23:32:19.758Z,101722.25
2023-03-19T23:34:59.197Z,101721.47
2023-03-19T23:37:29.084Z,101719.16
2023-03-19T23:40:01.086Z,101715.31
2023-03-19T23:42:31.781Z,101705.53
2023-03-19T23:45:04.716Z,101706.50
2023-03-19T23:47:33.667Z,101709.66
2023-03-19T23:50:01.394Z,101709.03
2023-03-19T23:52:28.888Z,101701.31
2023-03-19T23:54:57.639Z,101707.97
2023-03-19T23:57:26.834Z,101702.03
2023-03-19T23:59:55.252Z,101694.91
